sensor_id;sensor_type;location;lat;lon;timestamp;temperature;humidity
21805;DHT22;11064;47.102;15.452;2022-09-09T04:01:13;12.10;99.90
21805;DHT22;11064;47.102;15.452;2022-09-09T04:03:40;12.10;99.90
21805;DHT22;11064;47.102;15.452;2022-09-09T04:06:09;12.00;99.90
21805;DHT22;11064;47.102;15.452;2022-09-09T04:08:36;12.00;99.90
21805;DHT22;11064;47.102;15.452;2022-09-09T04:11:03;12.00;99.90
21805;DHT22;11064;47.102;15.452;2022-09-09T04:13:32;12.00;99.90
21805;DHT22;11064;47.102;15.452;2022-09-09T04:16:01;12.10;99.90
21805;DHT22;11064;47.102;15.452;2022-09-09T04:18:27;12.20;99.90
21805;DHT22;11064;47.102;15.452;2022-09-09T04:20:56;12.20;99.90
21805;DHT22;11064;47.102;15.452;2022-09-09T04:23:24;12.20;99.90
21805;DHT22;11064;47.102;15.452;2022-09-09T04:25:52;12.20;99.90
21805;DHT22;11064;47.102;15.452;2022-09-09T04:28:19;12.30;99.90
21805;DHT22;11064;47.102;15.452;2022-09-09T04:30:46;12.20;99.90
21805;DHT22;11064;47.102;15.452;2022-09-09T04:33:13;12.20;99.90
21805;DHT22;11064;47.102;15.452;2022-09-09T04:35:43;12.30;99.90
21805;DHT22;11064;47.102;15.452;2022-09-09T04:38:09;12.30;99.90
21805;DHT22;11064;47.102;15.452;2022-09-09T04:40:35;12.30;99.90
21805;DHT22;11064;47.102;15.452;2022-09-09T04:43:02;12.30;99.90
21805;DHT22;11064;47.102;15.452;2022-09-09T04:45:31;12.30;99.90
21805;DHT22;11064;47.102;15.452;2022-09-09T04:47:58;12.40;99.90
21805;DHT22;11064;47.102;15.452;2022-09-09T04:50:23;12.50;99.90
21805;DHT22;11064;47.102;15.452;2022-09-09T04:52:50;12.60;99.90
21805;DHT22;11064;47.102;15.452;2022-09-09T04:55:16;12.80;99.90
21805;DHT22;11064;47.102;15.452;2022-09-09T04:57:42;12.90;99.90
21805;DHT22;11064;47.102;15.452;2022-09-09T05:00:08;13.10;99.90
21805;DHT22;11064;47.102;15.452;2022-09-09T05:02:39;13.10;99.90
21805;DHT22;11064;47.102;15.452;2022-09-09T05:05:05;13.20;99.90
21805;DHT22;11064;47.102;15.452;2022-09-09T05:07:31;13.20;99.90
21805;DHT22;11064;47.102;15.452;2022-09-09T05:09:57;13.30;99.90
21805;DHT22;11064;47.102;15.452;2022-09-09T05:12:24;13.30;99.90
21805;DHT22;11064;47.102;15.452;2022-09-09T05:14:53;13.30;99.90
21805;DHT22;11064;47.102;15.452;2022-09-09T05:17:19;13.30;99.90
21805;DHT22;11064;47.102;15.452;2022-09-09T05:19:46;13.40;99.90
21805;DHT22;11064;47.102;15.452;2022-09-09T05:22:12;13.40;99.90
21805;DHT22;11064;47.102;15.452;2022-09-09T05:24:38;13.60;99.90
21805;DHT22;11064;47.102;15.452;2022-09-09T05:27:05;13.80;99.90
21805;DHT22;11064;47.102;15.452;2022-09-09T05:29:32;13.90;99.90
21805;DHT22;11064;47.102;15.452;2022-09-09T05:32:01;14.10;99.90
21805;DHT22;11064;47.102;15.452;2022-09-09T05:34:26;14.30;99.90
21805;DHT22;11064;47.102;15.452;2022-09-09T05:36:52;14.40;99.90
21805;DHT22;11064;47.102;15.452;2022-09-09T05:39:19;14.50;99.90
21805;DHT22;11064;47.102;15.452;2022-09-09T05:41:44;14.50;99.90
21805;DHT22;11064;47.102;15.452;2022-09-09T05:44:10;14.60;99.90
21805;DHT22;11064;47.102;15.452;2022-09-09T05:46:36;14.60;99.90
21805;DHT22;11064;47.102;15.452;2022-09-09T05:49:03;14.70;99.90
21805;DHT22;11064;47.102;15.452;2022-09-09T05:51:29;14.80;99.90
21805;DHT22;11064;47.102;15.452;2022-09-09T05:53:58;15.10;99.90
21805;DHT22;11064;47.102;15.452;2022-09-09T05:56:29;15.40;99.90
21805;DHT22;11064;47.102;15.452;2022-09-09T05:58:55;15.50;99.90
21805;DHT22;11064;47.102;15.452;2022-09-09T06:01:27;15.50;99.90
21805;DHT22;11064;47.102;15.452;2022-09-09T06:03:55;15.50;99.90
21805;DHT22;11064;47.102;15.452;2022-09-09T06:06:23;15.50;99.90
21805;DHT22;11064;47.102;15.452;2022-09-09T06:08:54;15.50;99.90
21805;DHT22;11064;47.102;15.452;2022-09-09T06:11:25;15.50;99.90
21805;DHT22;11064;47.102;15.452;2022-09-09T06:13:52;15.40;99.90
21805;DHT22;11064;47.102;15.452;2022-09-09T06:16:21;15.60;99.90
21805;DHT22;11064;47.102;15.452;2022-09-09T06:18:52;15.50;99.90
21805;DHT22;11064;47.102;15.452;2022-09-09T06:23:51;15.40;99.90
21805;DHT22;11064;47.102;15.452;2022-09-09T06:26:26;15.40;99.90
21805;DHT22;11064;47.102;15.452;2022-09-09T06:28:53;15.60;99.90
21805;DHT22;11064;47.102;15.452;2022-09-09T06:31:22;15.80;99.90
21805;DHT22;11064;47.102;15.452;2022-09-09T06:33:51;15.80;99.90
21805;DHT22;11064;47.102;15.452;2022-09-09T06:36:18;15.90;99.90
21805;DHT22;11064;47.102;15.452;2022-09-09T06:38:45;15.90;99.90
21805;DHT22;11064;47.102;15.452;2022-09-09T06:41:13;16.00;99.90
21805;DHT22;11064;47.102;15.452;2022-09-09T06:43:39;16.00;99.90
21805;DHT22;11064;47.102;15.452;2022-09-09T06:46:12;16.20;99.90
21805;DHT22;11064;47.102;15.452;2022-09-09T06:48:42;16.50;99.90
21805;DHT22;11064;47.102;15.452;2022-09-09T06:51:22;16.70;99.90
21805;DHT22;11064;47.102;15.452;2022-09-09T06:53:51;17.00;99.90
21805;DHT22;11064;47.102;15.452;2022-09-09T06:56:20;17.30;99.90
21805;DHT22;11064;47.102;15.452;2022-09-09T06:58:47;17.50;99.90
21805;DHT22;11064;47.102;15.452;2022-09-09T07:01:25;17.90;99.90
21805;DHT22;11064;47.102;15.452;2022-09-09T07:03:53;18.60;99.90
21805;DHT22;11064;47.102;15.452;2022-09-09T07:06:22;19.30;99.90
21805;DHT22;11064;47.102;15.452;2022-09-09T07:08:54;19.60;99.90
21805;DHT22;11064;47.102;15.452;2022-09-09T07:11:22;19.40;99.90
21805;DHT22;11064;47.102;15.452;2022-09-09T07:13:48;19.60;99.90
21805;DHT22;11064;47.102;15.452;2022-09-09T07:16:18;19.40;99.90
21805;DHT22;11064;47.102;15.452;2022-09-09T07:18:46;19.30;99.90
21805;DHT22;11064;47.102;15.452;2022-09-09T07:21:13;19.20;99.90
21805;DHT22;11064;47.102;15.452;2022-09-09T07:23:40;18.90;99.90
21805;DHT22;11064;47.102;15.452;2022-09-09T07:26:11;18.80;99.90
21805;DHT22;11064;47.102;15.452;2022-09-09T07:28:39;18.30;99.90
21805;DHT22;11064;47.102;15.452;2022-09-09T07:31:08;17.90;99.90
21805;DHT22;11064;47.102;15.452;2022-09-09T07:33:38;17.60;99.90
21805;DHT22;11064;47.102;15.452;2022-09-09T07:36:09;17.20;99.90
21805;DHT22;11064;47.102;15.452;2022-09-09T07:38:42;16.90;99.90
21805;DHT22;11064;47.102;15.452;2022-09-09T07:41:14;16.70;99.90
21805;DHT22;11064;47.102;15.452;2022-09-09T07:43:42;16.60;99.90
21805;DHT22;11064;47.102;15.452;2022-09-09T07:46:10;16.60;99.90
21805;DHT22;11064;47.102;15.452;2022-09-09T07:48:38;16.80;99.90
21805;DHT22;11064;47.102;15.452;2022-09-09T07:51:10;16.80;99.90
21805;DHT22;11064;47.102;15.452;2022-09-09T07:53:38;17.00;99.90
21805;DHT22;11064;47.102;15.452;2022-09-09T07:56:06;17.10;99.90
21805;DHT22;11064;47.102;15.452;2022-09-09T07:58:33;17.20;99.90
21805;DHT22;11064;47.102;15.452;2022-09-09T08:00:58;17.20;99.90
21805;DHT22;11064;47.102;15.452;2022-09-09T08:03:24;17.20;99.90
21805;DHT22;11064;47.102;15.452;2022-09-09T08:05:50;17.20;99.90
21805;DHT22;11064;47.102;15.452;2022-09-09T08:08:16;17.10;99.90
21805;DHT22;11064;47.102;15.452;2022-09-09T08:10:42;17.00;99.90
21805;DHT22;11064;47.102;15.452;2022-09-09T08:13:09;16.90;99.90
21805;DHT22;11064;47.102;15.452;2022-09-09T08:15:34;16.80;99.90
21805;DHT22;11064;47.102;15.452;2022-09-09T08:18:00;16.70;99.90
21805;DHT22;11064;47.102;15.452;2022-09-09T08:20:26;16.70;99.90
21805;DHT22;11064;47.102;15.452;2022-09-09T08:22:55;16.50;99.90
21805;DHT22;11064;47.102;15.452;2022-09-09T08:25:21;16.70;99.90
21805;DHT22;11064;47.102;15.452;2022-09-09T08:27:46;16.70;99.90
21805;DHT22;11064;47.102;15.452;2022-09-09T08:30:12;16.80;99.90
21805;DHT22;11064;47.102;15.452;2022-09-09T08:32:39;17.00;99.90
21805;DHT22;11064;47.102;15.452;2022-09-09T08:35:05;17.00;99.90
21805;DHT22;11064;47.102;15.452;2022-09-09T08:37:32;17.20;99.90
21805;DHT22;11064;47.102;15.452;2022-09-09T08:39:57;17.30;99.90
21805;DHT22;11064;47.102;15.452;2022-09-09T08:42:34;17.50;99.90
21805;DHT22;11064;47.102;15.452;2022-09-09T08:45:09;17.70;99.90
21805;DHT22;11064;47.102;15.452;2022-09-09T08:47:50;17.80;99.90
21805;DHT22;11064;47.102;15.452;2022-09-09T08:50:37;17.70;99.90
21805;DHT22;11064;47.102;15.452;2022-09-09T08:56:03;17.80;99.90
21805;DHT22;11064;47.102;15.452;2022-09-09T08:58:38;17.90;99.90
21805;DHT22;11064;47.102;15.452;2022-09-09T09:09:27;17.90;99.90
21805;DHT22;11064;47.102;15.452;2022-09-09T09:11:58;18.10;99.90
21805;DHT22;11064;47.102;15.452;2022-09-09T09:14:26;18.20;99.90
21805;DHT22;11064;47.102;15.452;2022-09-09T09:17:12;18.60;99.90
21805;DHT22;11064;47.102;15.452;2022-09-09T09:19:40;18.90;99.90
21805;DHT22;11064;47.102;15.452;2022-09-09T09:25:18;19.30;99.90
21805;DHT22;11064;47.102;15.452;2022-09-09T09:27:57;19.70;99.90
21805;DHT22;11064;47.102;15.452;2022-09-09T09:30:29;19.90;99.90
21805;DHT22;11064;47.102;15.452;2022-09-09T09:33:01;19.80;99.90
21805;DHT22;11064;47.102;15.452;2022-09-09T09:35:28;20.30;99.90
21805;DHT22;11064;47.102;15.452;2022-09-09T09:37:54;20.50;99.90
21805;DHT22;11064;47.102;15.452;2022-09-09T09:40:22;20.70;99.90
21805;DHT22;11064;47.102;15.452;2022-09-09T09:48:03;20.90;99.90
21805;DHT22;11064;47.102;15.452;2022-09-09T09:50:31;20.00;99.90
21805;DHT22;11064;47.102;15.452;2022-09-09T09:53:04;20.10;99.90
21805;DHT22;11064;47.102;15.452;2022-09-09T09:55:31;20.20;99.90
21805;DHT22;11064;47.102;15.452;2022-09-09T09:58:06;20.60;99.90
21805;DHT22;11064;47.102;15.452;2022-09-09T10:00:48;20.80;99.80
21805;DHT22;11064;47.102;15.452;2022-09-09T10:03:23;20.70;98.50
21805;DHT22;11064;47.102;15.452;2022-09-09T10:05:49;21.00;98.40
21805;DHT22;11064;47.102;15.452;2022-09-09T10:08:17;21.70;97.90
21805;DHT22;11064;47.102;15.452;2022-09-09T10:10:49;21.90;94.30
21805;DHT22;11064;47.102;15.452;2022-09-09T10:16:13;22.90;91.80
21805;DHT22;11064;47.102;15.452;2022-09-09T10:19:04;23.10;83.50
21805;DHT22;11064;47.102;15.452;2022-09-09T10:30:35;22.30;89.20
21805;DHT22;11064;47.102;15.452;2022-09-09T10:33:09;22.40;87.60
21805;DHT22;11064;47.102;15.452;2022-09-09T10:35:51;22.80;81.00
21805;DHT22;11064;47.102;15.452;2022-09-09T10:57:05;23.20;77.00
21805;DHT22;11064;47.102;15.452;2022-09-09T10:59:44;23.10;77.00
21805;DHT22;11064;47.102;15.452;2022-09-09T11:02:17;23.40;81.80
21805;DHT22;11064;47.102;15.452;2022-09-09T11:10:23;23.20;82.10
21805;DHT22;11064;47.102;15.452;2022-09-09T11:12:53;23.30;81.00
21805;DHT22;11064;47.102;15.452;2022-09-09T11:15:36;23.50;83.00
21805;DHT22;11064;47.102;15.452;2022-09-09T11:18:10;23.20;83.00
21805;DHT22;11064;47.102;15.452;2022-09-09T11:20:39;23.00;78.60
21805;DHT22;11064;47.102;15.452;2022-09-09T11:23:17;22.90;82.60
21805;DHT22;11064;47.102;15.452;2022-09-09T11:25:51;22.90;86.20
21805;DHT22;11064;47.102;15.452;2022-09-09T11:28:45;22.40;85.10
21805;DHT22;11064;47.102;15.452;2022-09-09T11:37:06;21.50;94.90
21805;DHT22;11064;47.102;15.452;2022-09-09T11:39:49;21.40;94.40
21805;DHT22;11064;47.102;15.452;2022-09-09T11:42:23;21.40;95.90
21805;DHT22;11064;47.102;15.452;2022-09-09T11:44:50;21.40;96.50
21805;DHT22;11064;47.102;15.452;2022-09-09T11:47:24;20.90;99.90
21805;DHT22;11064;47.102;15.452;2022-09-09T11:49:52;20.90;99.90
21805;DHT22;11064;47.102;15.452;2022-09-09T11:52:20;20.90;99.90
21805;DHT22;11064;47.102;15.452;2022-09-09T11:54:48;20.90;99.90
21805;DHT22;11064;47.102;15.452;2022-09-09T11:57:35;21.00;99.90
21805;DHT22;11064;47.102;15.452;2022-09-09T12:00:02;21.60;99.90
21805;DHT22;11064;47.102;15.452;2022-09-09T12:02:29;21.90;99.90
21805;DHT22;11064;47.102;15.452;2022-09-09T12:05:07;22.30;96.00
21805;DHT22;11064;47.102;15.452;2022-09-09T12:07:51;22.10;94.00
21805;DHT22;11064;47.102;15.452;2022-09-09T12:12:49;22.30;95.40
21805;DHT22;11064;47.102;15.452;2022-09-09T12:15:22;22.60;93.90
21805;DHT22;11064;47.102;15.452;2022-09-09T12:17:53;22.80;90.80
21805;DHT22;11064;47.102;15.452;2022-09-09T12:24:03;22.20;95.30
21805;DHT22;11064;47.102;15.452;2022-09-09T12:26:25;22.20;92.70
21805;DHT22;11064;47.102;15.452;2022-09-09T12:40:06;22.80;84.10
21805;DHT22;11064;47.102;15.452;2022-09-09T12:42:43;22.70;84.70
21805;DHT22;11064;47.102;15.452;2022-09-09T12:45:20;22.90;84.40
21805;DHT22;11064;47.102;15.452;2022-09-09T12:50:21;22.70;90.10
21805;DHT22;11064;47.102;15.452;2022-09-09T12:52:49;22.60;89.00
21805;DHT22;11064;47.102;15.452;2022-09-09T12:55:23;22.70;90.10
21805;DHT22;11064;47.102;15.452;2022-09-09T12:57:51;22.70;90.90
21805;DHT22;11064;47.102;15.452;2022-09-09T13:00:23;22.40;90.30
21805;DHT22;11064;47.102;15.452;2022-09-09T13:02:52;22.30;91.80
21805;DHT22;11064;47.102;15.452;2022-09-09T13:05:26;22.20;92.40
21805;DHT22;11064;47.102;15.452;2022-09-09T13:08:01;21.80;86.60
21805;DHT22;11064;47.102;15.452;2022-09-09T13:10:30;21.60;92.90
21805;DHT22;11064;47.102;15.452;2022-09-09T13:12:56;21.40;93.80
21805;DHT22;11064;47.102;15.452;2022-09-09T13:15:24;21.30;91.20
21805;DHT22;11064;47.102;15.452;2022-09-09T13:17:58;21.40;95.60
21805;DHT22;11064;47.102;15.452;2022-09-09T13:20:26;21.40;92.40
21805;DHT22;11064;47.102;15.452;2022-09-09T13:22:54;21.50;94.40
21805;DHT22;11064;47.102;15.452;2022-09-09T13:25:29;21.40;96.90
21805;DHT22;11064;47.102;15.452;2022-09-09T13:28:03;21.10;95.60
21805;DHT22;11064;47.102;15.452;2022-09-09T13:30:35;20.90;99.30
21805;DHT22;11064;47.102;15.452;2022-09-09T13:36:07;20.80;99.90
21805;DHT22;11064;47.102;15.452;2022-09-09T13:38:40;20.80;99.90
21805;DHT22;11064;47.102;15.452;2022-09-09T13:41:08;20.80;98.90
21805;DHT22;11064;47.102;15.452;2022-09-09T13:46:05;20.70;99.90
21805;DHT22;11064;47.102;15.452;2022-09-09T13:48:31;20.50;99.90
21805;DHT22;11064;47.102;15.452;2022-09-09T13:51:02;20.30;99.90
21805;DHT22;11064;47.102;15.452;2022-09-09T13:53:30;20.00;99.90
21805;DHT22;11064;47.102;15.452;2022-09-09T13:55:57;19.80;99.90
21805;DHT22;11064;47.102;15.452;2022-09-09T13:58:24;19.60;99.90
21805;DHT22;11064;47.102;15.452;2022-09-09T14:00:52;19.40;99.90
21805;DHT22;11064;47.102;15.452;2022-09-09T14:03:18;19.40;99.90
21805;DHT22;11064;47.102;15.452;2022-09-09T14:05:45;19.30;99.90
21805;DHT22;11064;47.102;15.452;2022-09-09T14:08:18;19.10;99.90
21805;DHT22;11064;47.102;15.452;2022-09-09T14:10:46;19.10;99.90
21805;DHT22;11064;47.102;15.452;2022-09-09T14:13:12;18.90;99.90
21805;DHT22;11064;47.102;15.452;2022-09-09T14:15:38;18.80;99.90
21805;DHT22;11064;47.102;15.452;2022-09-09T14:18:04;18.80;99.90
21805;DHT22;11064;47.102;15.452;2022-09-09T14:20:30;18.90;99.90
21805;DHT22;11064;47.102;15.452;2022-09-09T14:22:55;18.80;99.90
21805;DHT22;11064;47.102;15.452;2022-09-09T14:25:23;18.80;99.90
21805;DHT22;11064;47.102;15.452;2022-09-09T14:27:49;18.90;99.90
21805;DHT22;11064;47.102;15.452;2022-09-09T14:30:16;19.00;99.90
21805;DHT22;11064;47.102;15.452;2022-09-09T14:32:42;19.20;99.90
21805;DHT22;11064;47.102;15.452;2022-09-09T14:35:08;19.40;99.90
21805;DHT22;11064;47.102;15.452;2022-09-09T14:37:34;19.50;99.90
21805;DHT22;11064;47.102;15.452;2022-09-09T14:40:00;19.60;99.90
21805;DHT22;11064;47.102;15.452;2022-09-09T14:42:26;19.50;99.90
21805;DHT22;11064;47.102;15.452;2022-09-09T14:44:52;19.40;99.90
21805;DHT22;11064;47.102;15.452;2022-09-09T14:47:18;19.20;99.90
21805;DHT22;11064;47.102;15.452;2022-09-09T14:49:43;18.80;99.90
21805;DHT22;11064;47.102;15.452;2022-09-09T14:52:11;18.60;99.90
21805;DHT22;11064;47.102;15.452;2022-09-09T14:54:36;18.60;99.90
21805;DHT22;11064;47.102;15.452;2022-09-09T14:57:02;18.40;99.90
21805;DHT22;11064;47.102;15.452;2022-09-09T14:59:28;18.30;99.90
21805;DHT22;11064;47.102;15.452;2022-09-09T15:01:54;18.20;99.90
21805;DHT22;11064;47.102;15.452;2022-09-09T15:04:20;18.00;99.90
21805;DHT22;11064;47.102;15.452;2022-09-09T15:06:46;18.00;99.90
21805;DHT22;11064;47.102;15.452;2022-09-09T15:09:14;17.90;99.90
21805;DHT22;11064;47.102;15.452;2022-09-09T15:11:40;17.90;99.90
21805;DHT22;11064;47.102;15.452;2022-09-09T15:14:08;17.90;99.90
21805;DHT22;11064;47.102;15.452;2022-09-09T15:16:34;17.80;99.90
21805;DHT22;11064;47.102;15.452;2022-09-09T15:19:01;17.80;99.90
21805;DHT22;11064;47.102;15.452;2022-09-09T15:21:30;17.70;99.90
21805;DHT22;11064;47.102;15.452;2022-09-09T15:23:57;17.60;99.90
21805;DHT22;11064;47.102;15.452;2022-09-09T15:26:23;17.40;99.90
21805;DHT22;11064;47.102;15.452;2022-09-09T15:28:50;17.30;99.90
21805;DHT22;11064;47.102;15.452;2022-09-09T15:31:22;17.30;99.90
21805;DHT22;11064;47.102;15.452;2022-09-09T15:33:53;17.20;99.90
21805;DHT22;11064;47.102;15.452;2022-09-09T15:36:24;17.10;99.90
21805;DHT22;11064;47.102;15.452;2022-09-09T15:38:51;17.20;99.90
21805;DHT22;11064;47.102;15.452;2022-09-09T15:41:19;17.20;99.90
21805;DHT22;11064;47.102;15.452;2022-09-09T15:43:53;17.20;99.90
21805;DHT22;11064;47.102;15.452;2022-09-09T15:46:31;17.10;99.90
21805;DHT22;11064;47.102;15.452;2022-09-09T15:49:06;17.10;99.90
21805;DHT22;11064;47.102;15.452;2022-09-09T15:51:33;17.10;99.90
21805;DHT22;11064;47.102;15.452;2022-09-09T15:53:59;17.10;99.90
21805;DHT22;11064;47.102;15.452;2022-09-09T15:56:26;17.00;99.90
21805;DHT22;11064;47.102;15.452;2022-09-09T15:58:55;16.80;99.90
21805;DHT22;11064;47.102;15.452;2022-09-09T16:01:20;16.70;99.90
21805;DHT22;11064;47.102;15.452;2022-09-09T16:03:46;16.70;99.90
21805;DHT22;11064;47.102;15.452;2022-09-09T16:06:13;16.80;99.90
21805;DHT22;11064;47.102;15.452;2022-09-09T16:08:42;16.90;99.90
21805;DHT22;11064;47.102;15.452;2022-09-09T16:11:14;17.10;99.90
21805;DHT22;11064;47.102;15.452;2022-09-09T16:13:42;17.10;99.90
21805;DHT22;11064;47.102;15.452;2022-09-09T16:16:09;17.30;99.90
21805;DHT22;11064;47.102;15.452;2022-09-09T16:18:41;17.30;99.90
21805;DHT22;11064;47.102;15.452;2022-09-09T16:21:16;17.40;99.90
21805;DHT22;11064;47.102;15.452;2022-09-09T16:23:44;17.50;99.90
21805;DHT22;11064;47.102;15.452;2022-09-09T16:26:14;17.50;99.90
21805;DHT22;11064;47.102;15.452;2022-09-09T16:28:40;17.60;99.90
21805;DHT22;11064;47.102;15.452;2022-09-09T16:31:08;17.60;99.90
21805;DHT22;11064;47.102;15.452;2022-09-09T16:33:36;17.50;99.90
21805;DHT22;11064;47.102;15.452;2022-09-09T16:36:06;17.40;99.90
21805;DHT22;11064;47.102;15.452;2022-09-09T16:38:32;17.30;99.90
21805;DHT22;11064;47.102;15.452;2022-09-09T16:40:59;17.20;99.90
21805;DHT22;11064;47.102;15.452;2022-09-09T16:43:26;17.10;99.90
21805;DHT22;11064;47.102;15.452;2022-09-09T16:45:52;17.00;99.90
21805;DHT22;11064;47.102;15.452;2022-09-09T16:48:18;16.90;99.90
21805;DHT22;11064;47.102;15.452;2022-09-09T16:50:43;16.90;99.90
21805;DHT22;11064;47.102;15.452;2022-09-09T16:53:09;16.70;99.90
21805;DHT22;11064;47.102;15.452;2022-09-09T16:55:40;16.70;99.90
21805;DHT22;11064;47.102;15.452;2022-09-09T16:58:07;16.60;99.90
21805;DHT22;11064;47.102;15.452;2022-09-09T17:00:34;16.50;99.90
21805;DHT22;11064;47.102;15.452;2022-09-09T17:03:00;16.40;99.90
21805;DHT22;11064;47.102;15.452;2022-09-09T17:05:26;16.30;99.90
21805;DHT22;11064;47.102;15.452;2022-09-09T17:07:53;16.30;99.90
21805;DHT22;11064;47.102;15.452;2022-09-09T17:10:21;16.20;99.90
21805;DHT22;11064;47.102;15.452;2022-09-09T17:12:46;16.20;99.90
21805;DHT22;11064;47.102;15.452;2022-09-09T17:15:12;16.20;99.90
21805;DHT22;11064;47.102;15.452;2022-09-09T17:17:38;16.20;99.90
21805;DHT22;11064;47.102;15.452;2022-09-09T17:20:04;16.10;99.90
21805;DHT22;11064;47.102;15.452;2022-09-09T17:22:34;16.00;99.90
21805;DHT22;11064;47.102;15.452;2022-09-09T17:25:00;16.00;99.90
21805;DHT22;11064;47.102;15.452;2022-09-09T17:27:25;15.90;99.90
21805;DHT22;11064;47.102;15.452;2022-09-09T17:29:51;15.90;99.90
21805;DHT22;11064;47.102;15.452;2022-09-09T17:32:17;15.90;99.90
21805;DHT22;11064;47.102;15.452;2022-09-09T17:34:44;15.80;99.90
21805;DHT22;11064;47.102;15.452;2022-09-09T17:37:11;15.80;99.90
21805;DHT22;11064;47.102;15.452;2022-09-09T17:39:37;15.70;99.90
21805;DHT22;11064;47.102;15.452;2022-09-09T17:42:03;15.70;99.90
21805;DHT22;11064;47.102;15.452;2022-09-09T17:44:29;15.70;99.90
21805;DHT22;11064;47.102;15.452;2022-09-09T17:46:57;15.60;99.90
21805;DHT22;11064;47.102;15.452;2022-09-09T17:49:23;15.60;99.90
21805;DHT22;11064;47.102;15.452;2022-09-09T17:51:48;15.50;99.90
21805;DHT22;11064;47.102;15.452;2022-09-09T17:54:17;15.50;99.90
21805;DHT22;11064;47.102;15.452;2022-09-09T17:56:43;15.50;99.90
21805;DHT22;11064;47.102;15.452;2022-09-09T17:59:11;15.50;99.90
21805;DHT22;11064;47.102;15.452;2022-09-09T18:01:40;15.50;99.90
21805;DHT22;11064;47.102;15.452;2022-09-09T18:04:08;15.50;99.90
21805;DHT22;11064;47.102;15.452;2022-09-09T18:06:39;15.50;99.90
21805;DHT22;11064;47.102;15.452;2022-09-09T18:09:14;15.50;99.90
21805;DHT22;11064;47.102;15.452;2022-09-09T18:11:46;15.50;99.90
21805;DHT22;11064;47.102;15.452;2022-09-09T18:14:18;15.40;99.90
21805;DHT22;11064;47.102;15.452;2022-09-09T18:16:47;15.40;99.90
21805;DHT22;11064;47.102;15.452;2022-09-09T18:19:15;15.40;99.90
21805;DHT22;11064;47.102;15.452;2022-09-09T18:21:43;15.40;99.90
21805;DHT22;11064;47.102;15.452;2022-09-09T18:24:10;15.40;99.90
21805;DHT22;11064;47.102;15.452;2022-09-09T18:26:37;15.30;99.90
21805;DHT22;11064;47.102;15.452;2022-09-09T18:29:13;15.30;99.90
21805;DHT22;11064;47.102;15.452;2022-09-09T18:31:40;15.30;99.90
21805;DHT22;11064;47.102;15.452;2022-09-09T18:34:10;15.30;99.90
21805;DHT22;11064;47.102;15.452;2022-09-09T18:36:56;15.30;99.90
21805;DHT22;11064;47.102;15.452;2022-09-09T18:39:25;15.30;99.90
21805;DHT22;11064;47.102;15.452;2022-09-09T18:41:54;15.20;99.90
21805;DHT22;11064;47.102;15.452;2022-09-09T18:44:23;15.20;99.90
21805;DHT22;11064;47.102;15.452;2022-09-09T18:46:53;15.20;99.90
21805;DHT22;11064;47.102;15.452;2022-09-09T18:49:20;15.20;99.90
21805;DHT22;11064;47.102;15.452;2022-09-09T18:51:46;15.20;99.90
21805;DHT22;11064;47.102;15.452;2022-09-09T18:56:44;15.20;99.90
21805;DHT22;11064;47.102;15.452;2022-09-09T18:59:14;15.20;99.90
21805;DHT22;11064;47.102;15.452;2022-09-09T19:01:43;15.10;99.90
21805;DHT22;11064;47.102;15.452;2022-09-09T19:04:09;15.00;99.90
21805;DHT22;11064;47.102;15.452;2022-09-09T19:06:40;15.00;99.90
21805;DHT22;11064;47.102;15.452;2022-09-09T19:09:09;15.00;99.90
21805;DHT22;11064;47.102;15.452;2022-09-09T19:11:36;15.00;99.90
21805;DHT22;11064;47.102;15.452;2022-09-09T19:14:04;15.00;99.90
21805;DHT22;11064;47.102;15.452;2022-09-09T19:16:32;15.00;99.90
21805;DHT22;11064;47.102;15.452;2022-09-09T19:19:10;15.00;99.90
21805;DHT22;11064;47.102;15.452;2022-09-09T19:21:37;15.00;99.90
21805;DHT22;11064;47.102;15.452;2022-09-09T19:24:11;15.00;99.90
21805;DHT22;11064;47.102;15.452;2022-09-09T19:26:42;15.00;99.90
21805;DHT22;11064;47.102;15.452;2022-09-09T19:29:11;14.90;99.90
21805;DHT22;11064;47.102;15.452;2022-09-09T19:31:39;14.90;99.90
21805;DHT22;11064;47.102;15.452;2022-09-09T19:34:06;14.90;99.90
21805;DHT22;11064;47.102;15.452;2022-09-09T19:36:32;14.90;99.90
21805;DHT22;11064;47.102;15.452;2022-09-09T19:38:58;14.80;99.90
21805;DHT22;11064;47.102;15.452;2022-09-09T19:41:27;14.80;99.90
21805;DHT22;11064;47.102;15.452;2022-09-09T19:43:58;14.90;99.90
21805;DHT22;11064;47.102;15.452;2022-09-09T19:46:28;14.90;99.90
21805;DHT22;11064;47.102;15.452;2022-09-09T19:48:55;14.90;99.90
21805;DHT22;11064;47.102;15.452;2022-09-09T19:51:23;14.80;99.90
21805;DHT22;11064;47.102;15.452;2022-09-09T19:53:57;14.70;99.90
21805;DHT22;11064;47.102;15.452;2022-09-09T19:56:26;14.70;99.90
21805;DHT22;11064;47.102;15.452;2022-09-09T19:58:52;14.70;99.90
21805;DHT22;11064;47.102;15.452;2022-09-09T20:01:21;14.80;99.90
21805;DHT22;11064;47.102;15.452;2022-09-09T20:03:49;14.90;99.90
21805;DHT22;11064;47.102;15.452;2022-09-09T20:06:18;14.90;99.90
21805;DHT22;11064;47.102;15.452;2022-09-09T20:08:45;14.80;99.90
21805;DHT22;11064;47.102;15.452;2022-09-09T20:11:13;14.80;99.90
21805;DHT22;11064;47.102;15.452;2022-09-09T20:13:40;14.80;99.90
21805;DHT22;11064;47.102;15.452;2022-09-09T20:16:15;14.80;99.90
21805;DHT22;11064;47.102;15.452;2022-09-09T20:18:44;14.80;99.90
21805;DHT22;11064;47.102;15.452;2022-09-09T20:21:15;14.80;99.90
21805;DHT22;11064;47.102;15.452;2022-09-09T20:23:44;14.70;99.90
21805;DHT22;11064;47.102;15.452;2022-09-09T20:26:13;14.70;99.90
21805;DHT22;11064;47.102;15.452;2022-09-09T20:28:40;14.70;99.90
21805;DHT22;11064;47.102;15.452;2022-09-09T20:31:10;14.70;99.90
21805;DHT22;11064;47.102;15.452;2022-09-09T20:33:37;14.70;99.90
21805;DHT22;11064;47.102;15.452;2022-09-09T20:38:39;14.70;99.90
21805;DHT22;11064;47.102;15.452;2022-09-09T20:41:06;14.70;99.90
21805;DHT22;11064;47.102;15.452;2022-09-09T20:43:39;14.50;99.90
21805;DHT22;11064;47.102;15.452;2022-09-09T20:46:05;14.50;99.90
21805;DHT22;11064;47.102;15.452;2022-09-09T20:48:32;14.60;99.90
21805;DHT22;11064;47.102;15.452;2022-09-09T20:51:05;14.50;99.90
21805;DHT22;11064;47.102;15.452;2022-09-09T20:53:32;14.50;99.90
21805;DHT22;11064;47.102;15.452;2022-09-09T20:55:59;14.50;99.90
21805;DHT22;11064;47.102;15.452;2022-09-09T20:58:25;14.40;99.90
21805;DHT22;11064;47.102;15.452;2022-09-09T21:00:51;14.40;99.90